<?xml version="1.0" encoding="UTF-8" standalone="no" ?>
<gpx xmlns="http://www.topografix.com/GPX/1/1" xmlns:xsi="http://www.w3.org/2001/XMLSchema-instance" xsi:schemaLocation="http://www.topografix.com/GPX/1/1 http://www.topografix.com/GPX/1/1/gpx.xsd" version="1.1" creator="VisuGPX - https://www.visugpx.com">
  <metadata>
    <name>8922746-Donon réel</name>
  </metadata>
  <trk>
    <name><![CDATA[8922746-Donon réel]]></name>
    <trkseg>
      <trkpt lat="48.50663" lon="7.14732">
        <ele>720</ele>
        <time>2022-07-30T08:03:52Z</time>
      </trkpt>
      <trkpt lat="48.5072" lon="7.14685">
        <ele>726</ele>
        <time>2022-07-30T08:05:19Z</time>
      </trkpt>
      <trkpt lat="48.50726" lon="7.14673">
        <ele>727</ele>
        <time>2022-07-30T08:05:32Z</time>
      </trkpt>
      <trkpt lat="48.5073" lon="7.14661">
        <ele>728</ele>
        <time>2022-07-30T08:05:44Z</time>
      </trkpt>
      <trkpt lat="48.50729" lon="7.14639">
        <ele>729</ele>
        <time>2022-07-30T08:06:03Z</time>
      </trkpt>
      <trkpt lat="48.50724" lon="7.14623">
        <ele>729</ele>
        <time>2022-07-30T08:06:19Z</time>
      </trkpt>
      <trkpt lat="48.50746" lon="7.14603">
        <ele>734</ele>
        <time>2022-07-30T08:06:53Z</time>
      </trkpt>
      <trkpt lat="48.50757" lon="7.14597">
        <ele>735</ele>
        <time>2022-07-30T08:07:09Z</time>
      </trkpt>
      <trkpt lat="48.50766" lon="7.14596">
        <ele>736</ele>
        <time>2022-07-30T08:07:21Z</time>
      </trkpt>
      <trkpt lat="48.50775" lon="7.14598">
        <ele>736</ele>
        <time>2022-07-30T08:07:33Z</time>
      </trkpt>
      <trkpt lat="48.50784" lon="7.14604">
        <ele>736</ele>
        <time>2022-07-30T08:07:46Z</time>
      </trkpt>
      <trkpt lat="48.50791" lon="7.14616">
        <ele>736</ele>
        <time>2022-07-30T08:08:00Z</time>
      </trkpt>
      <trkpt lat="48.50791" lon="7.14616">
        <ele>736</ele>
        <time>2022-07-30T08:08:00Z</time>
      </trkpt>
      <trkpt lat="48.50796" lon="7.14631">
        <ele>736</ele>
        <time>2022-07-30T08:08:15Z</time>
      </trkpt>
      <trkpt lat="48.50796" lon="7.14651">
        <ele>735</ele>
        <time>2022-07-30T08:08:33Z</time>
      </trkpt>
      <trkpt lat="48.50789" lon="7.14706">
        <ele>732</ele>
        <time>2022-07-30T08:09:22Z</time>
      </trkpt>
      <trkpt lat="48.50789" lon="7.14738">
        <ele>731</ele>
        <time>2022-07-30T08:09:51Z</time>
      </trkpt>
      <trkpt lat="48.50794" lon="7.14801">
        <ele>733</ele>
        <time>2022-07-30T08:10:47Z</time>
      </trkpt>
      <trkpt lat="48.50814" lon="7.14944">
        <ele>741</ele>
        <time>2022-07-30T08:12:56Z</time>
      </trkpt>
      <trkpt lat="48.50808" lon="7.14956">
        <ele>742</ele>
        <time>2022-07-30T08:13:09Z</time>
      </trkpt>
      <trkpt lat="48.50806" lon="7.14969">
        <ele>743</ele>
        <time>2022-07-30T08:13:21Z</time>
      </trkpt>
      <trkpt lat="48.50804" lon="7.14988">
        <ele>744</ele>
        <time>2022-07-30T08:13:38Z</time>
      </trkpt>
      <trkpt lat="48.508" lon="7.15014">
        <ele>746</ele>
        <time>2022-07-30T08:14:02Z</time>
      </trkpt>
      <trkpt lat="48.50792" lon="7.15036">
        <ele>749</ele>
        <time>2022-07-30T08:14:24Z</time>
      </trkpt>
      <trkpt lat="48.50771" lon="7.15079">
        <ele>754</ele>
        <time>2022-07-30T08:15:11Z</time>
      </trkpt>
      <trkpt lat="48.50759" lon="7.15112">
        <ele>760</ele>
        <time>2022-07-30T08:15:44Z</time>
      </trkpt>
      <trkpt lat="48.50749" lon="7.15127">
        <ele>763</ele>
        <time>2022-07-30T08:16:03Z</time>
      </trkpt>
      <trkpt lat="48.50745" lon="7.1513">
        <ele>763</ele>
        <time>2022-07-30T08:16:09Z</time>
      </trkpt>
      <trkpt lat="48.50708" lon="7.15146">
        <ele>766</ele>
        <time>2022-07-30T08:17:01Z</time>
      </trkpt>
      <trkpt lat="48.50708" lon="7.15146">
        <ele>766</ele>
        <time>2022-07-30T08:17:01Z</time>
      </trkpt>
      <trkpt lat="48.50695" lon="7.15156">
        <ele>767</ele>
        <time>2022-07-30T08:17:20Z</time>
      </trkpt>
      <trkpt lat="48.50686" lon="7.15167">
        <ele>768</ele>
        <time>2022-07-30T08:17:36Z</time>
      </trkpt>
      <trkpt lat="48.50676" lon="7.1519">
        <ele>771</ele>
        <time>2022-07-30T08:18:00Z</time>
      </trkpt>
      <trkpt lat="48.50659" lon="7.15236">
        <ele>773</ele>
        <time>2022-07-30T08:18:46Z</time>
      </trkpt>
      <trkpt lat="48.50652" lon="7.15272">
        <ele>775</ele>
        <time>2022-07-30T08:19:20Z</time>
      </trkpt>
      <trkpt lat="48.50647" lon="7.15287">
        <ele>774</ele>
        <time>2022-07-30T08:19:34Z</time>
      </trkpt>
      <trkpt lat="48.50642" lon="7.15295">
        <ele>774</ele>
        <time>2022-07-30T08:19:44Z</time>
      </trkpt>
      <trkpt lat="48.50639" lon="7.15315">
        <ele>774</ele>
        <time>2022-07-30T08:20:02Z</time>
      </trkpt>
      <trkpt lat="48.50641" lon="7.15331">
        <ele>776</ele>
        <time>2022-07-30T08:20:17Z</time>
      </trkpt>
      <trkpt lat="48.50644" lon="7.15349">
        <ele>777</ele>
        <time>2022-07-30T08:20:33Z</time>
      </trkpt>
      <trkpt lat="48.50657" lon="7.15381">
        <ele>783</ele>
        <time>2022-07-30T08:21:06Z</time>
      </trkpt>
      <trkpt lat="48.50667" lon="7.15397">
        <ele>787</ele>
        <time>2022-07-30T08:21:26Z</time>
      </trkpt>
      <trkpt lat="48.50687" lon="7.1542">
        <ele>791</ele>
        <time>2022-07-30T08:21:59Z</time>
      </trkpt>
      <trkpt lat="48.50738" lon="7.15436">
        <ele>799</ele>
        <time>2022-07-30T08:23:09Z</time>
      </trkpt>
      <trkpt lat="48.50743" lon="7.15441">
        <ele>800</ele>
        <time>2022-07-30T08:23:17Z</time>
      </trkpt>
      <trkpt lat="48.50757" lon="7.15429">
        <ele>800</ele>
        <time>2022-07-30T08:23:38Z</time>
      </trkpt>
      <trkpt lat="48.50792" lon="7.15439">
        <ele>800</ele>
        <time>2022-07-30T08:24:26Z</time>
      </trkpt>
      <trkpt lat="48.50822" lon="7.15472">
        <ele>803</ele>
        <time>2022-07-30T08:25:15Z</time>
      </trkpt>
      <trkpt lat="48.50899" lon="7.15596">
        <ele>820</ele>
        <time>2022-07-30T08:27:46Z</time>
      </trkpt>
      <trkpt lat="48.50944" lon="7.15677">
        <ele>827</ele>
        <time>2022-07-30T08:29:19Z</time>
      </trkpt>
      <trkpt lat="48.51032" lon="7.15752">
        <ele>830</ele>
        <time>2022-07-30T08:31:34Z</time>
      </trkpt>
      <trkpt lat="48.51066" lon="7.1577">
        <ele>829</ele>
        <time>2022-07-30T08:32:22Z</time>
      </trkpt>
      <trkpt lat="48.51066" lon="7.1577">
        <ele>829</ele>
        <time>2022-07-30T08:32:22Z</time>
      </trkpt>
      <trkpt lat="48.51081" lon="7.15778">
        <ele>828</ele>
        <time>2022-07-30T08:32:43Z</time>
      </trkpt>
      <trkpt lat="48.51236" lon="7.15841">
        <ele>837</ele>
        <time>2022-07-30T08:36:17Z</time>
      </trkpt>
      <trkpt lat="48.51399" lon="7.15987">
        <ele>837</ele>
        <time>2022-07-30T08:40:30Z</time>
      </trkpt>
      <trkpt lat="48.51525" lon="7.1619">
        <ele>843</ele>
        <time>2022-07-30T08:44:36Z</time>
      </trkpt>
      <trkpt lat="48.51547" lon="7.16257">
        <ele>846</ele>
        <time>2022-07-30T08:45:42Z</time>
      </trkpt>
      <trkpt lat="48.5156" lon="7.1632">
        <ele>850</ele>
        <time>2022-07-30T08:46:41Z</time>
      </trkpt>
      <trkpt lat="48.5158" lon="7.16479">
        <ele>855</ele>
        <time>2022-07-30T08:49:04Z</time>
      </trkpt>
      <trkpt lat="48.5157" lon="7.16557">
        <ele>863</ele>
        <time>2022-07-30T08:50:14Z</time>
      </trkpt>
      <trkpt lat="48.5155" lon="7.16644">
        <ele>870</ele>
        <time>2022-07-30T08:51:35Z</time>
      </trkpt>
      <trkpt lat="48.51548" lon="7.16676">
        <ele>868</ele>
        <time>2022-07-30T08:52:04Z</time>
      </trkpt>
      <trkpt lat="48.5155" lon="7.16723">
        <ele>862</ele>
        <time>2022-07-30T08:52:45Z</time>
      </trkpt>
      <trkpt lat="48.51563" lon="7.16825">
        <ele>847</ele>
        <time>2022-07-30T08:54:17Z</time>
      </trkpt>
      <trkpt lat="48.51563" lon="7.16825">
        <ele>847</ele>
        <time>2022-07-30T08:54:17Z</time>
      </trkpt>
      <trkpt lat="48.51567" lon="7.16938">
        <ele>834</ele>
        <time>2022-07-30T08:55:57Z</time>
      </trkpt>
      <trkpt lat="48.51571" lon="7.16974">
        <ele>831</ele>
        <time>2022-07-30T08:56:30Z</time>
      </trkpt>
      <trkpt lat="48.51574" lon="7.16993">
        <ele>829</ele>
        <time>2022-07-30T08:56:47Z</time>
      </trkpt>
      <trkpt lat="48.51579" lon="7.17006">
        <ele>829</ele>
        <time>2022-07-30T08:57:00Z</time>
      </trkpt>
      <trkpt lat="48.51586" lon="7.17021">
        <ele>830</ele>
        <time>2022-07-30T08:57:16Z</time>
      </trkpt>
      <trkpt lat="48.51593" lon="7.1703">
        <ele>831</ele>
        <time>2022-07-30T08:57:29Z</time>
      </trkpt>
      <trkpt lat="48.51626" lon="7.17045">
        <ele>833</ele>
        <time>2022-07-30T08:58:15Z</time>
      </trkpt>
      <trkpt lat="48.51671" lon="7.17071">
        <ele>837</ele>
        <time>2022-07-30T08:59:19Z</time>
      </trkpt>
      <trkpt lat="48.51695" lon="7.17099">
        <ele>838</ele>
        <time>2022-07-30T08:59:59Z</time>
      </trkpt>
      <trkpt lat="48.51737" lon="7.17128">
        <ele>837</ele>
        <time>2022-07-30T09:01:01Z</time>
      </trkpt>
      <trkpt lat="48.51788" lon="7.17135">
        <ele>837</ele>
        <time>2022-07-30T09:02:09Z</time>
      </trkpt>
      <trkpt lat="48.51847" lon="7.17128">
        <ele>837</ele>
        <time>2022-07-30T09:03:28Z</time>
      </trkpt>
      <trkpt lat="48.51911" lon="7.17126">
        <ele>840</ele>
        <time>2022-07-30T09:04:54Z</time>
      </trkpt>
      <trkpt lat="48.51911" lon="7.17126">
        <ele>840</ele>
        <time>2022-07-30T09:04:54Z</time>
      </trkpt>
      <trkpt lat="48.51932" lon="7.17121">
        <ele>842</ele>
        <time>2022-07-30T09:05:22Z</time>
      </trkpt>
      <trkpt lat="48.51967" lon="7.17101">
        <ele>843</ele>
        <time>2022-07-30T09:06:12Z</time>
      </trkpt>
      <trkpt lat="48.51995" lon="7.17092">
        <ele>845</ele>
        <time>2022-07-30T09:06:50Z</time>
      </trkpt>
      <trkpt lat="48.52153" lon="7.16976">
        <ele>838</ele>
        <time>2022-07-30T09:10:45Z</time>
      </trkpt>
      <trkpt lat="48.52222" lon="7.16909">
        <ele>832</ele>
        <time>2022-07-30T09:12:34Z</time>
      </trkpt>
      <trkpt lat="48.52296" lon="7.16814">
        <ele>819</ele>
        <time>2022-07-30T09:14:44Z</time>
      </trkpt>
      <trkpt lat="48.5234" lon="7.16769">
        <ele>815</ele>
        <time>2022-07-30T09:15:55Z</time>
      </trkpt>
      <trkpt lat="48.52368" lon="7.16748">
        <ele>812</ele>
        <time>2022-07-30T09:16:36Z</time>
      </trkpt>
      <trkpt lat="48.52445" lon="7.16712">
        <ele>807</ele>
        <time>2022-07-30T09:18:24Z</time>
      </trkpt>
      <trkpt lat="48.52467" lon="7.16704">
        <ele>805</ele>
        <time>2022-07-30T09:18:54Z</time>
      </trkpt>
      <trkpt lat="48.52554" lon="7.16685">
        <ele>797</ele>
        <time>2022-07-30T09:20:52Z</time>
      </trkpt>
      <trkpt lat="48.52554" lon="7.16685">
        <ele>797</ele>
        <time>2022-07-30T09:20:52Z</time>
      </trkpt>
      <trkpt lat="48.52586" lon="7.16679">
        <ele>794</ele>
        <time>2022-07-30T09:21:35Z</time>
      </trkpt>
      <trkpt lat="48.52611" lon="7.16681">
        <ele>792</ele>
        <time>2022-07-30T09:22:08Z</time>
      </trkpt>
      <trkpt lat="48.52635" lon="7.16689">
        <ele>791</ele>
        <time>2022-07-30T09:22:41Z</time>
      </trkpt>
      <trkpt lat="48.52672" lon="7.16705">
        <ele>789</ele>
        <time>2022-07-30T09:23:32Z</time>
      </trkpt>
      <trkpt lat="48.52688" lon="7.16716">
        <ele>788</ele>
        <time>2022-07-30T09:23:56Z</time>
      </trkpt>
      <trkpt lat="48.52734" lon="7.16752">
        <ele>786</ele>
        <time>2022-07-30T09:25:05Z</time>
      </trkpt>
      <trkpt lat="48.52757" lon="7.16783">
        <ele>784</ele>
        <time>2022-07-30T09:25:46Z</time>
      </trkpt>
      <trkpt lat="48.52761" lon="7.16773">
        <ele>783</ele>
        <time>2022-07-30T09:25:56Z</time>
      </trkpt>
      <trkpt lat="48.52813" lon="7.1683">
        <ele>785</ele>
        <time>2022-07-30T09:27:22Z</time>
      </trkpt>
      <trkpt lat="48.52841" lon="7.16854">
        <ele>783</ele>
        <time>2022-07-30T09:28:05Z</time>
      </trkpt>
      <trkpt lat="48.5287" lon="7.16867">
        <ele>783</ele>
        <time>2022-07-30T09:28:45Z</time>
      </trkpt>
      <trkpt lat="48.52873" lon="7.16859">
        <ele>784</ele>
        <time>2022-07-30T09:28:53Z</time>
      </trkpt>
      <trkpt lat="48.52899" lon="7.16864">
        <ele>785</ele>
        <time>2022-07-30T09:29:28Z</time>
      </trkpt>
      <trkpt lat="48.52907" lon="7.16872">
        <ele>786</ele>
        <time>2022-07-30T09:29:41Z</time>
      </trkpt>
      <trkpt lat="48.52913" lon="7.16873">
        <ele>786</ele>
        <time>2022-07-30T09:29:49Z</time>
      </trkpt>
      <trkpt lat="48.52913" lon="7.16873">
        <ele>786</ele>
        <time>2022-07-30T09:29:49Z</time>
      </trkpt>
      <trkpt lat="48.52932" lon="7.16875">
        <ele>789</ele>
        <time>2022-07-30T09:30:15Z</time>
      </trkpt>
      <trkpt lat="48.52941" lon="7.16871">
        <ele>790</ele>
        <time>2022-07-30T09:30:27Z</time>
      </trkpt>
      <trkpt lat="48.52945" lon="7.16866">
        <ele>791</ele>
        <time>2022-07-30T09:30:34Z</time>
      </trkpt>
      <trkpt lat="48.5295" lon="7.16866">
        <ele>792</ele>
        <time>2022-07-30T09:30:41Z</time>
      </trkpt>
      <trkpt lat="48.52959" lon="7.1687">
        <ele>794</ele>
        <time>2022-07-30T09:30:53Z</time>
      </trkpt>
      <trkpt lat="48.52969" lon="7.1687">
        <ele>795</ele>
        <time>2022-07-30T09:31:07Z</time>
      </trkpt>
      <trkpt lat="48.5302" lon="7.16909">
        <ele>805</ele>
        <time>2022-07-30T09:32:23Z</time>
      </trkpt>
      <trkpt lat="48.53055" lon="7.16943">
        <ele>809</ele>
        <time>2022-07-30T09:33:18Z</time>
      </trkpt>
      <trkpt lat="48.5307" lon="7.16953">
        <ele>812</ele>
        <time>2022-07-30T09:33:40Z</time>
      </trkpt>
      <trkpt lat="48.53124" lon="7.17009">
        <ele>815</ele>
        <time>2022-07-30T09:35:08Z</time>
      </trkpt>
      <trkpt lat="48.53131" lon="7.17014">
        <ele>816</ele>
        <time>2022-07-30T09:35:18Z</time>
      </trkpt>
      <trkpt lat="48.53172" lon="7.17065">
        <ele>816</ele>
        <time>2022-07-30T09:36:29Z</time>
      </trkpt>
      <trkpt lat="48.53206" lon="7.17113">
        <ele>811</ele>
        <time>2022-07-30T09:37:31Z</time>
      </trkpt>
      <trkpt lat="48.53215" lon="7.17119">
        <ele>811</ele>
        <time>2022-07-30T09:37:44Z</time>
      </trkpt>
      <trkpt lat="48.53222" lon="7.17128">
        <ele>811</ele>
        <time>2022-07-30T09:37:56Z</time>
      </trkpt>
      <trkpt lat="48.53236" lon="7.17169">
        <ele>808</ele>
        <time>2022-07-30T09:38:37Z</time>
      </trkpt>
      <trkpt lat="48.53244" lon="7.17173">
        <ele>809</ele>
        <time>2022-07-30T09:38:49Z</time>
      </trkpt>
      <trkpt lat="48.53252" lon="7.17179">
        <ele>809</ele>
        <time>2022-07-30T09:39:00Z</time>
      </trkpt>
      <trkpt lat="48.53264" lon="7.17141">
        <ele>809</ele>
        <time>2022-07-30T09:39:38Z</time>
      </trkpt>
      <trkpt lat="48.53273" lon="7.17091">
        <ele>809</ele>
        <time>2022-07-30T09:40:23Z</time>
      </trkpt>
      <trkpt lat="48.53289" lon="7.17035">
        <ele>808</ele>
        <time>2022-07-30T09:41:17Z</time>
      </trkpt>
      <trkpt lat="48.53324" lon="7.16945">
        <ele>809</ele>
        <time>2022-07-30T09:42:50Z</time>
      </trkpt>
      <trkpt lat="48.53376" lon="7.16867">
        <ele>805</ele>
        <time>2022-07-30T09:44:27Z</time>
      </trkpt>
      <trkpt lat="48.53446" lon="7.16788">
        <ele>801</ele>
        <time>2022-07-30T09:46:24Z</time>
      </trkpt>
      <trkpt lat="48.53446" lon="7.16788">
        <ele>801</ele>
        <time>2022-07-30T09:46:24Z</time>
      </trkpt>
      <trkpt lat="48.53376" lon="7.16867">
        <ele>805</ele>
        <time>2022-07-30T09:48:21Z</time>
      </trkpt>
      <trkpt lat="48.53324" lon="7.16945">
        <ele>809</ele>
        <time>2022-07-30T09:49:58Z</time>
      </trkpt>
      <trkpt lat="48.53289" lon="7.17035">
        <ele>808</ele>
        <time>2022-07-30T09:51:31Z</time>
      </trkpt>
      <trkpt lat="48.53273" lon="7.17091">
        <ele>809</ele>
        <time>2022-07-30T09:52:25Z</time>
      </trkpt>
      <trkpt lat="48.53264" lon="7.17141">
        <ele>809</ele>
        <time>2022-07-30T09:53:10Z</time>
      </trkpt>
      <trkpt lat="48.53252" lon="7.17179">
        <ele>809</ele>
        <time>2022-07-30T09:53:48Z</time>
      </trkpt>
      <trkpt lat="48.53244" lon="7.17173">
        <ele>809</ele>
        <time>2022-07-30T09:54:00Z</time>
      </trkpt>
      <trkpt lat="48.53236" lon="7.17169">
        <ele>808</ele>
        <time>2022-07-30T09:54:11Z</time>
      </trkpt>
      <trkpt lat="48.53222" lon="7.17128">
        <ele>811</ele>
        <time>2022-07-30T09:54:52Z</time>
      </trkpt>
      <trkpt lat="48.53215" lon="7.17119">
        <ele>811</ele>
        <time>2022-07-30T09:55:04Z</time>
      </trkpt>
      <trkpt lat="48.53206" lon="7.17113">
        <ele>811</ele>
        <time>2022-07-30T09:55:17Z</time>
      </trkpt>
      <trkpt lat="48.53172" lon="7.17065">
        <ele>816</ele>
        <time>2022-07-30T09:56:19Z</time>
      </trkpt>
      <trkpt lat="48.53131" lon="7.17014">
        <ele>816</ele>
        <time>2022-07-30T09:57:30Z</time>
      </trkpt>
      <trkpt lat="48.53124" lon="7.17009">
        <ele>815</ele>
        <time>2022-07-30T09:57:40Z</time>
      </trkpt>
      <trkpt lat="48.5307" lon="7.16953">
        <ele>812</ele>
        <time>2022-07-30T09:59:08Z</time>
      </trkpt>
      <trkpt lat="48.53055" lon="7.16943">
        <ele>809</ele>
        <time>2022-07-30T09:59:30Z</time>
      </trkpt>
      <trkpt lat="48.5302" lon="7.16909">
        <ele>805</ele>
        <time>2022-07-30T10:00:25Z</time>
      </trkpt>
      <trkpt lat="48.52969" lon="7.1687">
        <ele>795</ele>
        <time>2022-07-30T10:01:41Z</time>
      </trkpt>
      <trkpt lat="48.52959" lon="7.1687">
        <ele>794</ele>
        <time>2022-07-30T10:01:55Z</time>
      </trkpt>
      <trkpt lat="48.5295" lon="7.16866">
        <ele>792</ele>
        <time>2022-07-30T10:02:07Z</time>
      </trkpt>
      <trkpt lat="48.52945" lon="7.16866">
        <ele>791</ele>
        <time>2022-07-30T10:02:14Z</time>
      </trkpt>
      <trkpt lat="48.52941" lon="7.16871">
        <ele>790</ele>
        <time>2022-07-30T10:02:21Z</time>
      </trkpt>
      <trkpt lat="48.52932" lon="7.16875">
        <ele>789</ele>
        <time>2022-07-30T10:02:33Z</time>
      </trkpt>
      <trkpt lat="48.52921" lon="7.16875">
        <ele>787</ele>
        <time>2022-07-30T10:02:48Z</time>
      </trkpt>
      <trkpt lat="48.52907" lon="7.16872">
        <ele>786</ele>
        <time>2022-07-30T10:03:07Z</time>
      </trkpt>
      <trkpt lat="48.52899" lon="7.16864">
        <ele>785</ele>
        <time>2022-07-30T10:03:20Z</time>
      </trkpt>
      <trkpt lat="48.52873" lon="7.16859">
        <ele>784</ele>
        <time>2022-07-30T10:03:55Z</time>
      </trkpt>
      <trkpt lat="48.5287" lon="7.16867">
        <ele>783</ele>
        <time>2022-07-30T10:04:03Z</time>
      </trkpt>
      <trkpt lat="48.52841" lon="7.16854">
        <ele>783</ele>
        <time>2022-07-30T10:04:43Z</time>
      </trkpt>
      <trkpt lat="48.52813" lon="7.1683">
        <ele>785</ele>
        <time>2022-07-30T10:05:26Z</time>
      </trkpt>
      <trkpt lat="48.52761" lon="7.16773">
        <ele>783</ele>
        <time>2022-07-30T10:06:52Z</time>
      </trkpt>
      <trkpt lat="48.52757" lon="7.16783">
        <ele>784</ele>
        <time>2022-07-30T10:07:02Z</time>
      </trkpt>
      <trkpt lat="48.52766" lon="7.16804">
        <ele>785</ele>
        <time>2022-07-30T10:07:24Z</time>
      </trkpt>
      <trkpt lat="48.52768" lon="7.16819">
        <ele>786</ele>
        <time>2022-07-30T10:07:38Z</time>
      </trkpt>
      <trkpt lat="48.52759" lon="7.16824">
        <ele>787</ele>
        <time>2022-07-30T10:07:51Z</time>
      </trkpt>
      <trkpt lat="48.52748" lon="7.16825">
        <ele>788</ele>
        <time>2022-07-30T10:08:05Z</time>
      </trkpt>
      <trkpt lat="48.52743" lon="7.16822">
        <ele>788</ele>
        <time>2022-07-30T10:08:13Z</time>
      </trkpt>
      <trkpt lat="48.52738" lon="7.16825">
        <ele>789</ele>
        <time>2022-07-30T10:08:20Z</time>
      </trkpt>
      <trkpt lat="48.52733" lon="7.16823">
        <ele>790</ele>
        <time>2022-07-30T10:08:27Z</time>
      </trkpt>
      <trkpt lat="48.52723" lon="7.16823">
        <ele>791</ele>
        <time>2022-07-30T10:08:40Z</time>
      </trkpt>
      <trkpt lat="48.52698" lon="7.16818">
        <ele>794</ele>
        <time>2022-07-30T10:09:14Z</time>
      </trkpt>
      <trkpt lat="48.52688" lon="7.16823">
        <ele>796</ele>
        <time>2022-07-30T10:09:28Z</time>
      </trkpt>
      <trkpt lat="48.52675" lon="7.16825">
        <ele>798</ele>
        <time>2022-07-30T10:09:45Z</time>
      </trkpt>
      <trkpt lat="48.52645" lon="7.1685">
        <ele>798</ele>
        <time>2022-07-30T10:10:31Z</time>
      </trkpt>
      <trkpt lat="48.52641" lon="7.16864">
        <ele>796</ele>
        <time>2022-07-30T10:10:44Z</time>
      </trkpt>
      <trkpt lat="48.52602" lon="7.16879">
        <ele>798</ele>
        <time>2022-07-30T10:11:38Z</time>
      </trkpt>
      <trkpt lat="48.52598" lon="7.16885">
        <ele>797</ele>
        <time>2022-07-30T10:11:46Z</time>
      </trkpt>
      <trkpt lat="48.52598" lon="7.16885">
        <ele>797</ele>
        <time>2022-07-30T10:11:46Z</time>
      </trkpt>
      <trkpt lat="48.52571" lon="7.16923">
        <ele>796</ele>
        <time>2022-07-30T10:12:35Z</time>
      </trkpt>
      <trkpt lat="48.5254" lon="7.16945">
        <ele>799</ele>
        <time>2022-07-30T10:13:21Z</time>
      </trkpt>
      <trkpt lat="48.52492" lon="7.16992">
        <ele>806</ele>
        <time>2022-07-30T10:14:37Z</time>
      </trkpt>
      <trkpt lat="48.52465" lon="7.17023">
        <ele>811</ele>
        <time>2022-07-30T10:15:22Z</time>
      </trkpt>
      <trkpt lat="48.52447" lon="7.17052">
        <ele>817</ele>
        <time>2022-07-30T10:15:57Z</time>
      </trkpt>
      <trkpt lat="48.52438" lon="7.1709">
        <ele>820</ele>
        <time>2022-07-30T10:16:33Z</time>
      </trkpt>
      <trkpt lat="48.52435" lon="7.17129">
        <ele>822</ele>
        <time>2022-07-30T10:17:08Z</time>
      </trkpt>
      <trkpt lat="48.52428" lon="7.17149">
        <ele>827</ele>
        <time>2022-07-30T10:17:28Z</time>
      </trkpt>
      <trkpt lat="48.52423" lon="7.17147">
        <ele>829</ele>
        <time>2022-07-30T10:17:35Z</time>
      </trkpt>
      <trkpt lat="48.52415" lon="7.17119">
        <ele>832</ele>
        <time>2022-07-30T10:18:01Z</time>
      </trkpt>
      <trkpt lat="48.52408" lon="7.17117">
        <ele>835</ele>
        <time>2022-07-30T10:18:11Z</time>
      </trkpt>
      <trkpt lat="48.52405" lon="7.17068">
        <ele>834</ele>
        <time>2022-07-30T10:18:54Z</time>
      </trkpt>
      <trkpt lat="48.52406" lon="7.17046">
        <ele>833</ele>
        <time>2022-07-30T10:19:14Z</time>
      </trkpt>
      <trkpt lat="48.52401" lon="7.17038">
        <ele>835</ele>
        <time>2022-07-30T10:19:24Z</time>
      </trkpt>
      <trkpt lat="48.52401" lon="7.17038">
        <ele>835</ele>
        <time>2022-07-30T10:19:24Z</time>
      </trkpt>
      <trkpt lat="48.52398" lon="7.17034">
        <ele>836</ele>
        <time>2022-07-30T10:19:29Z</time>
      </trkpt>
      <trkpt lat="48.52391" lon="7.17015">
        <ele>838</ele>
        <time>2022-07-30T10:19:48Z</time>
      </trkpt>
      <trkpt lat="48.52388" lon="7.16987">
        <ele>839</ele>
        <time>2022-07-30T10:20:13Z</time>
      </trkpt>
      <trkpt lat="48.52379" lon="7.16998">
        <ele>842</ele>
        <time>2022-07-30T10:20:29Z</time>
      </trkpt>
      <trkpt lat="48.52352" lon="7.17051">
        <ele>852</ele>
        <time>2022-07-30T10:21:28Z</time>
      </trkpt>
      <trkpt lat="48.52344" lon="7.17077">
        <ele>855</ele>
        <time>2022-07-30T10:21:53Z</time>
      </trkpt>
      <trkpt lat="48.52338" lon="7.17122">
        <ele>859</ele>
        <time>2022-07-30T10:22:34Z</time>
      </trkpt>
      <trkpt lat="48.52339" lon="7.17199">
        <ele>863</ele>
        <time>2022-07-30T10:23:42Z</time>
      </trkpt>
      <trkpt lat="48.52338" lon="7.17219">
        <ele>865</ele>
        <time>2022-07-30T10:24:00Z</time>
      </trkpt>
      <trkpt lat="48.52337" lon="7.17288">
        <ele>868</ele>
        <time>2022-07-30T10:25:01Z</time>
      </trkpt>
      <trkpt lat="48.52332" lon="7.17346">
        <ele>869</ele>
        <time>2022-07-30T10:25:52Z</time>
      </trkpt>
      <trkpt lat="48.52326" lon="7.17367">
        <ele>868</ele>
        <time>2022-07-30T10:26:12Z</time>
      </trkpt>
      <trkpt lat="48.52321" lon="7.17374">
        <ele>869</ele>
        <time>2022-07-30T10:26:22Z</time>
      </trkpt>
      <trkpt lat="48.52315" lon="7.17376">
        <ele>869</ele>
        <time>2022-07-30T10:26:30Z</time>
      </trkpt>
      <trkpt lat="48.52302" lon="7.1737">
        <ele>872</ele>
        <time>2022-07-30T10:26:48Z</time>
      </trkpt>
      <trkpt lat="48.52251" lon="7.17339">
        <ele>888</ele>
        <time>2022-07-30T10:28:01Z</time>
      </trkpt>
      <trkpt lat="48.52232" lon="7.17323">
        <ele>890</ele>
        <time>2022-07-30T10:28:30Z</time>
      </trkpt>
      <trkpt lat="48.52215" lon="7.1732">
        <ele>891</ele>
        <time>2022-07-30T10:28:53Z</time>
      </trkpt>
      <trkpt lat="48.52201" lon="7.17308">
        <ele>892</ele>
        <time>2022-07-30T10:29:15Z</time>
      </trkpt>
      <trkpt lat="48.52125" lon="7.17287">
        <ele>893</ele>
        <time>2022-07-30T10:30:58Z</time>
      </trkpt>
      <trkpt lat="48.52099" lon="7.17285">
        <ele>891</ele>
        <time>2022-07-30T10:31:32Z</time>
      </trkpt>
      <trkpt lat="48.52046" lon="7.17303">
        <ele>887</ele>
        <time>2022-07-30T10:32:45Z</time>
      </trkpt>
      <trkpt lat="48.52019" lon="7.17328">
        <ele>887</ele>
        <time>2022-07-30T10:33:27Z</time>
      </trkpt>
      <trkpt lat="48.52016" lon="7.17325">
        <ele>887</ele>
        <time>2022-07-30T10:33:32Z</time>
      </trkpt>
      <trkpt lat="48.51973" lon="7.17362">
        <ele>885</ele>
        <time>2022-07-30T10:34:38Z</time>
      </trkpt>
      <trkpt lat="48.51896" lon="7.17405">
        <ele>890</ele>
        <time>2022-07-30T10:36:28Z</time>
      </trkpt>
      <trkpt lat="48.51861" lon="7.17449">
        <ele>896</ele>
        <time>2022-07-30T10:37:28Z</time>
      </trkpt>
      <trkpt lat="48.51847" lon="7.17484">
        <ele>901</ele>
        <time>2022-07-30T10:38:05Z</time>
      </trkpt>
      <trkpt lat="48.51838" lon="7.17483">
        <ele>903</ele>
        <time>2022-07-30T10:38:17Z</time>
      </trkpt>
      <trkpt lat="48.51823" lon="7.17472">
        <ele>903</ele>
        <time>2022-07-30T10:38:39Z</time>
      </trkpt>
      <trkpt lat="48.51822" lon="7.17479">
        <ele>904</ele>
        <time>2022-07-30T10:38:45Z</time>
      </trkpt>
      <trkpt lat="48.5181" lon="7.17487">
        <ele>906</ele>
        <time>2022-07-30T10:39:03Z</time>
      </trkpt>
      <trkpt lat="48.51799" lon="7.1749">
        <ele>907</ele>
        <time>2022-07-30T10:39:18Z</time>
      </trkpt>
      <trkpt lat="48.51795" lon="7.17507">
        <ele>909</ele>
        <time>2022-07-30T10:39:34Z</time>
      </trkpt>
      <trkpt lat="48.5179" lon="7.17511">
        <ele>909</ele>
        <time>2022-07-30T10:39:41Z</time>
      </trkpt>
      <trkpt lat="48.51772" lon="7.17513">
        <ele>911</ele>
        <time>2022-07-30T10:40:05Z</time>
      </trkpt>
      <trkpt lat="48.51764" lon="7.1752">
        <ele>912</ele>
        <time>2022-07-30T10:40:18Z</time>
      </trkpt>
      <trkpt lat="48.51738" lon="7.17522">
        <ele>916</ele>
        <time>2022-07-30T10:40:52Z</time>
      </trkpt>
      <trkpt lat="48.5171" lon="7.17516">
        <ele>923</ele>
        <time>2022-07-30T10:41:30Z</time>
      </trkpt>
      <trkpt lat="48.51686" lon="7.17516">
        <ele>929</ele>
        <time>2022-07-30T10:42:02Z</time>
      </trkpt>
      <trkpt lat="48.51669" lon="7.17514">
        <ele>933</ele>
        <time>2022-07-30T10:42:25Z</time>
      </trkpt>
      <trkpt lat="48.51659" lon="7.17517">
        <ele>933</ele>
        <time>2022-07-30T10:42:38Z</time>
      </trkpt>
      <trkpt lat="48.51624" lon="7.17536">
        <ele>930</ele>
        <time>2022-07-30T10:43:28Z</time>
      </trkpt>
      <trkpt lat="48.51616" lon="7.17545">
        <ele>931</ele>
        <time>2022-07-30T10:43:41Z</time>
      </trkpt>
      <trkpt lat="48.51616" lon="7.17545">
        <ele>931</ele>
        <time>2022-07-30T10:43:41Z</time>
      </trkpt>
      <trkpt lat="48.51624" lon="7.17536">
        <ele>930</ele>
        <time>2022-07-30T10:43:55Z</time>
      </trkpt>
      <trkpt lat="48.51659" lon="7.17517">
        <ele>933</ele>
        <time>2022-07-30T10:44:44Z</time>
      </trkpt>
      <trkpt lat="48.51669" lon="7.17514">
        <ele>933</ele>
        <time>2022-07-30T10:44:58Z</time>
      </trkpt>
      <trkpt lat="48.51686" lon="7.17516">
        <ele>929</ele>
        <time>2022-07-30T10:45:21Z</time>
      </trkpt>
      <trkpt lat="48.5171" lon="7.17516">
        <ele>923</ele>
        <time>2022-07-30T10:45:53Z</time>
      </trkpt>
      <trkpt lat="48.51738" lon="7.17522">
        <ele>916</ele>
        <time>2022-07-30T10:46:30Z</time>
      </trkpt>
      <trkpt lat="48.51764" lon="7.1752">
        <ele>912</ele>
        <time>2022-07-30T10:47:05Z</time>
      </trkpt>
      <trkpt lat="48.51772" lon="7.17513">
        <ele>911</ele>
        <time>2022-07-30T10:47:18Z</time>
      </trkpt>
      <trkpt lat="48.5179" lon="7.17511">
        <ele>909</ele>
        <time>2022-07-30T10:47:42Z</time>
      </trkpt>
      <trkpt lat="48.51795" lon="7.17507">
        <ele>909</ele>
        <time>2022-07-30T10:47:49Z</time>
      </trkpt>
      <trkpt lat="48.51799" lon="7.1749">
        <ele>907</ele>
        <time>2022-07-30T10:48:05Z</time>
      </trkpt>
      <trkpt lat="48.5181" lon="7.17487">
        <ele>906</ele>
        <time>2022-07-30T10:48:20Z</time>
      </trkpt>
      <trkpt lat="48.51822" lon="7.17479">
        <ele>904</ele>
        <time>2022-07-30T10:48:38Z</time>
      </trkpt>
      <trkpt lat="48.51823" lon="7.17472">
        <ele>903</ele>
        <time>2022-07-30T10:48:44Z</time>
      </trkpt>
      <trkpt lat="48.51838" lon="7.17483">
        <ele>903</ele>
        <time>2022-07-30T10:49:06Z</time>
      </trkpt>
      <trkpt lat="48.51847" lon="7.17484">
        <ele>901</ele>
        <time>2022-07-30T10:49:18Z</time>
      </trkpt>
      <trkpt lat="48.51861" lon="7.17449">
        <ele>896</ele>
        <time>2022-07-30T10:49:54Z</time>
      </trkpt>
      <trkpt lat="48.51871" lon="7.17436">
        <ele>894</ele>
        <time>2022-07-30T10:50:12Z</time>
      </trkpt>
      <trkpt lat="48.51871" lon="7.17436">
        <ele>894</ele>
        <time>2022-07-30T10:50:12Z</time>
      </trkpt>
      <trkpt lat="48.51896" lon="7.17405">
        <ele>890</ele>
        <time>2022-07-30T10:50:55Z</time>
      </trkpt>
      <trkpt lat="48.51878" lon="7.17406">
        <ele>891</ele>
        <time>2022-07-30T10:51:19Z</time>
      </trkpt>
      <trkpt lat="48.51855" lon="7.17415">
        <ele>894</ele>
        <time>2022-07-30T10:51:51Z</time>
      </trkpt>
      <trkpt lat="48.51835" lon="7.17399">
        <ele>892</ele>
        <time>2022-07-30T10:52:21Z</time>
      </trkpt>
      <trkpt lat="48.51826" lon="7.17394">
        <ele>891</ele>
        <time>2022-07-30T10:52:34Z</time>
      </trkpt>
      <trkpt lat="48.51826" lon="7.17394">
        <ele>891</ele>
        <time>2022-07-30T10:52:34Z</time>
      </trkpt>
      <trkpt lat="48.51797" lon="7.17381">
        <ele>888</ele>
        <time>2022-07-30T10:53:14Z</time>
      </trkpt>
      <trkpt lat="48.51753" lon="7.17333">
        <ele>876</ele>
        <time>2022-07-30T10:54:27Z</time>
      </trkpt>
      <trkpt lat="48.51701" lon="7.17288">
        <ele>867</ele>
        <time>2022-07-30T10:55:47Z</time>
      </trkpt>
      <trkpt lat="48.51685" lon="7.17283">
        <ele>867</ele>
        <time>2022-07-30T10:56:08Z</time>
      </trkpt>
      <trkpt lat="48.51623" lon="7.17255">
        <ele>854</ele>
        <time>2022-07-30T10:57:35Z</time>
      </trkpt>
      <trkpt lat="48.51603" lon="7.17256">
        <ele>852</ele>
        <time>2022-07-30T10:58:01Z</time>
      </trkpt>
      <trkpt lat="48.51587" lon="7.17276">
        <ele>853</ele>
        <time>2022-07-30T10:58:29Z</time>
      </trkpt>
      <trkpt lat="48.51581" lon="7.1728">
        <ele>852</ele>
        <time>2022-07-30T10:58:38Z</time>
      </trkpt>
      <trkpt lat="48.51573" lon="7.17283">
        <ele>851</ele>
        <time>2022-07-30T10:58:49Z</time>
      </trkpt>
      <trkpt lat="48.51563" lon="7.17272">
        <ele>847</ele>
        <time>2022-07-30T10:59:05Z</time>
      </trkpt>
      <trkpt lat="48.5156" lon="7.17255">
        <ele>843</ele>
        <time>2022-07-30T10:59:21Z</time>
      </trkpt>
      <trkpt lat="48.51558" lon="7.17232">
        <ele>840</ele>
        <time>2022-07-30T10:59:42Z</time>
      </trkpt>
      <trkpt lat="48.51571" lon="7.17197">
        <ele>841</ele>
        <time>2022-07-30T11:00:17Z</time>
      </trkpt>
      <trkpt lat="48.51572" lon="7.17185">
        <ele>840</ele>
        <time>2022-07-30T11:00:28Z</time>
      </trkpt>
      <trkpt lat="48.51574" lon="7.1714">
        <ele>836</ele>
        <time>2022-07-30T11:01:08Z</time>
      </trkpt>
      <trkpt lat="48.51574" lon="7.1714">
        <ele>836</ele>
        <time>2022-07-30T11:01:08Z</time>
      </trkpt>
      <trkpt lat="48.51585" lon="7.1708">
        <ele>831</ele>
        <time>2022-07-30T11:02:03Z</time>
      </trkpt>
      <trkpt lat="48.51593" lon="7.1703">
        <ele>831</ele>
        <time>2022-07-30T11:02:48Z</time>
      </trkpt>
      <trkpt lat="48.51586" lon="7.17021">
        <ele>830</ele>
        <time>2022-07-30T11:03:00Z</time>
      </trkpt>
      <trkpt lat="48.51579" lon="7.17006">
        <ele>829</ele>
        <time>2022-07-30T11:03:17Z</time>
      </trkpt>
      <trkpt lat="48.51574" lon="7.16993">
        <ele>829</ele>
        <time>2022-07-30T11:03:30Z</time>
      </trkpt>
      <trkpt lat="48.51571" lon="7.16974">
        <ele>831</ele>
        <time>2022-07-30T11:03:47Z</time>
      </trkpt>
      <trkpt lat="48.51567" lon="7.16938">
        <ele>834</ele>
        <time>2022-07-30T11:04:19Z</time>
      </trkpt>
      <trkpt lat="48.51563" lon="7.16826">
        <ele>847</ele>
        <time>2022-07-30T11:05:58Z</time>
      </trkpt>
      <trkpt lat="48.5155" lon="7.16723">
        <ele>862</ele>
        <time>2022-07-30T11:07:31Z</time>
      </trkpt>
      <trkpt lat="48.51548" lon="7.16676">
        <ele>868</ele>
        <time>2022-07-30T11:08:13Z</time>
      </trkpt>
      <trkpt lat="48.5155" lon="7.16644">
        <ele>870</ele>
        <time>2022-07-30T11:08:41Z</time>
      </trkpt>
      <trkpt lat="48.51546" lon="7.1665">
        <ele>871</ele>
        <time>2022-07-30T11:08:49Z</time>
      </trkpt>
      <trkpt lat="48.51529" lon="7.16708">
        <ele>871</ele>
        <time>2022-07-30T11:09:45Z</time>
      </trkpt>
      <trkpt lat="48.51507" lon="7.16753">
        <ele>871</ele>
        <time>2022-07-30T11:10:34Z</time>
      </trkpt>
      <trkpt lat="48.51497" lon="7.16763">
        <ele>872</ele>
        <time>2022-07-30T11:10:50Z</time>
      </trkpt>
      <trkpt lat="48.51491" lon="7.16767">
        <ele>873</ele>
        <time>2022-07-30T11:10:59Z</time>
      </trkpt>
      <trkpt lat="48.51484" lon="7.16768">
        <ele>874</ele>
        <time>2022-07-30T11:11:08Z</time>
      </trkpt>
      <trkpt lat="48.51456" lon="7.16755">
        <ele>883</ele>
        <time>2022-07-30T11:11:47Z</time>
      </trkpt>
      <trkpt lat="48.51428" lon="7.16751">
        <ele>890</ele>
        <time>2022-07-30T11:12:25Z</time>
      </trkpt>
      <trkpt lat="48.51402" lon="7.16751">
        <ele>895</ele>
        <time>2022-07-30T11:13:00Z</time>
      </trkpt>
      <trkpt lat="48.51403" lon="7.16744">
        <ele>897</ele>
        <time>2022-07-30T11:13:06Z</time>
      </trkpt>
      <trkpt lat="48.51419" lon="7.16723">
        <ele>900</ele>
        <time>2022-07-30T11:13:34Z</time>
      </trkpt>
      <trkpt lat="48.5143" lon="7.16717">
        <ele>898</ele>
        <time>2022-07-30T11:13:50Z</time>
      </trkpt>
      <trkpt lat="48.51444" lon="7.16706">
        <ele>897</ele>
        <time>2022-07-30T11:14:11Z</time>
      </trkpt>
      <trkpt lat="48.51454" lon="7.16701">
        <ele>896</ele>
        <time>2022-07-30T11:14:25Z</time>
      </trkpt>
      <trkpt lat="48.5146" lon="7.16694">
        <ele>895</ele>
        <time>2022-07-30T11:14:35Z</time>
      </trkpt>
      <trkpt lat="48.51438" lon="7.16689">
        <ele>903</ele>
        <time>2022-07-30T11:15:05Z</time>
      </trkpt>
      <trkpt lat="48.51434" lon="7.16685">
        <ele>905</ele>
        <time>2022-07-30T11:15:11Z</time>
      </trkpt>
      <trkpt lat="48.5144" lon="7.16676">
        <ele>905</ele>
        <time>2022-07-30T11:15:23Z</time>
      </trkpt>
      <trkpt lat="48.5145" lon="7.16665">
        <ele>905</ele>
        <time>2022-07-30T11:15:39Z</time>
      </trkpt>
      <trkpt lat="48.51452" lon="7.16659">
        <ele>905</ele>
        <time>2022-07-30T11:15:45Z</time>
      </trkpt>
      <trkpt lat="48.51452" lon="7.16659">
        <ele>905</ele>
        <time>2022-07-30T11:15:45Z</time>
      </trkpt>
      <trkpt lat="48.51455" lon="7.16646">
        <ele>905</ele>
        <time>2022-07-30T11:15:57Z</time>
      </trkpt>
      <trkpt lat="48.51456" lon="7.16634">
        <ele>906</ele>
        <time>2022-07-30T11:16:08Z</time>
      </trkpt>
      <trkpt lat="48.51454" lon="7.16618">
        <ele>909</ele>
        <time>2022-07-30T11:16:22Z</time>
      </trkpt>
      <trkpt lat="48.51455" lon="7.1659">
        <ele>912</ele>
        <time>2022-07-30T11:16:47Z</time>
      </trkpt>
      <trkpt lat="48.51454" lon="7.16571">
        <ele>912</ele>
        <time>2022-07-30T11:17:04Z</time>
      </trkpt>
      <trkpt lat="48.51446" lon="7.16554">
        <ele>915</ele>
        <time>2022-07-30T11:17:22Z</time>
      </trkpt>
      <trkpt lat="48.51444" lon="7.16545">
        <ele>916</ele>
        <time>2022-07-30T11:17:31Z</time>
      </trkpt>
      <trkpt lat="48.51438" lon="7.16497">
        <ele>918</ele>
        <time>2022-07-30T11:18:14Z</time>
      </trkpt>
      <trkpt lat="48.51434" lon="7.16498">
        <ele>919</ele>
        <time>2022-07-30T11:18:19Z</time>
      </trkpt>
      <trkpt lat="48.51433" lon="7.16545">
        <ele>920</ele>
        <time>2022-07-30T11:19:01Z</time>
      </trkpt>
      <trkpt lat="48.51429" lon="7.16554">
        <ele>922</ele>
        <time>2022-07-30T11:19:10Z</time>
      </trkpt>
      <trkpt lat="48.51424" lon="7.16551">
        <ele>924</ele>
        <time>2022-07-30T11:19:18Z</time>
      </trkpt>
      <trkpt lat="48.51414" lon="7.16493">
        <ele>928</ele>
        <time>2022-07-30T11:20:11Z</time>
      </trkpt>
      <trkpt lat="48.51409" lon="7.16475">
        <ele>928</ele>
        <time>2022-07-30T11:20:28Z</time>
      </trkpt>
      <trkpt lat="48.51406" lon="7.16477">
        <ele>930</ele>
        <time>2022-07-30T11:20:32Z</time>
      </trkpt>
      <trkpt lat="48.51406" lon="7.16489">
        <ele>932</ele>
        <time>2022-07-30T11:20:43Z</time>
      </trkpt>
      <trkpt lat="48.51404" lon="7.16502">
        <ele>934</ele>
        <time>2022-07-30T11:20:55Z</time>
      </trkpt>
      <trkpt lat="48.514" lon="7.16551">
        <ele>936</ele>
        <time>2022-07-30T11:21:38Z</time>
      </trkpt>
      <trkpt lat="48.51396" lon="7.16565">
        <ele>938</ele>
        <time>2022-07-30T11:21:52Z</time>
      </trkpt>
      <trkpt lat="48.5139" lon="7.1658">
        <ele>941</ele>
        <time>2022-07-30T11:22:07Z</time>
      </trkpt>
      <trkpt lat="48.51388" lon="7.1658">
        <ele>942</ele>
        <time>2022-07-30T11:22:10Z</time>
      </trkpt>
      <trkpt lat="48.5138" lon="7.16529">
        <ele>947</ele>
        <time>2022-07-30T11:22:56Z</time>
      </trkpt>
      <trkpt lat="48.5138" lon="7.16529">
        <ele>947</ele>
        <time>2022-07-30T11:22:56Z</time>
      </trkpt>
      <trkpt lat="48.51373" lon="7.16515">
        <ele>951</ele>
        <time>2022-07-30T11:23:12Z</time>
      </trkpt>
      <trkpt lat="48.51369" lon="7.16496">
        <ele>953</ele>
        <time>2022-07-30T11:23:29Z</time>
      </trkpt>
      <trkpt lat="48.5136" lon="7.16483">
        <ele>956</ele>
        <time>2022-07-30T11:23:46Z</time>
      </trkpt>
      <trkpt lat="48.51358" lon="7.16484">
        <ele>957</ele>
        <time>2022-07-30T11:23:49Z</time>
      </trkpt>
      <trkpt lat="48.51358" lon="7.16557">
        <ele>958</ele>
        <time>2022-07-30T11:24:53Z</time>
      </trkpt>
      <trkpt lat="48.51355" lon="7.1657">
        <ele>959</ele>
        <time>2022-07-30T11:25:06Z</time>
      </trkpt>
      <trkpt lat="48.51347" lon="7.1659">
        <ele>961</ele>
        <time>2022-07-30T11:25:26Z</time>
      </trkpt>
      <trkpt lat="48.51324" lon="7.16593">
        <ele>967</ele>
        <time>2022-07-30T11:25:57Z</time>
      </trkpt>
      <trkpt lat="48.51309" lon="7.16608">
        <ele>964</ele>
        <time>2022-07-30T11:26:21Z</time>
      </trkpt>
      <trkpt lat="48.51303" lon="7.16611">
        <ele>963</ele>
        <time>2022-07-30T11:26:29Z</time>
      </trkpt>
      <trkpt lat="48.51296" lon="7.16612">
        <ele>964</ele>
        <time>2022-07-30T11:26:39Z</time>
      </trkpt>
      <trkpt lat="48.51287" lon="7.16618">
        <ele>963</ele>
        <time>2022-07-30T11:26:52Z</time>
      </trkpt>
      <trkpt lat="48.51285" lon="7.16615">
        <ele>964</ele>
        <time>2022-07-30T11:26:56Z</time>
      </trkpt>
      <trkpt lat="48.51285" lon="7.1661">
        <ele>966</ele>
        <time>2022-07-30T11:27:00Z</time>
      </trkpt>
      <trkpt lat="48.51288" lon="7.1661">
        <ele>965</ele>
        <time>2022-07-30T11:27:04Z</time>
      </trkpt>
      <trkpt lat="48.513" lon="7.16601">
        <ele>967</ele>
        <time>2022-07-30T11:27:22Z</time>
      </trkpt>
      <trkpt lat="48.51312" lon="7.16578">
        <ele>972</ele>
        <time>2022-07-30T11:27:48Z</time>
      </trkpt>
      <trkpt lat="48.51313" lon="7.16571">
        <ele>973</ele>
        <time>2022-07-30T11:27:54Z</time>
      </trkpt>
      <trkpt lat="48.51311" lon="7.1657">
        <ele>973</ele>
        <time>2022-07-30T11:27:57Z</time>
      </trkpt>
      <trkpt lat="48.51299" lon="7.16578">
        <ele>974</ele>
        <time>2022-07-30T11:28:15Z</time>
      </trkpt>
      <trkpt lat="48.51299" lon="7.16578">
        <ele>974</ele>
        <time>2022-07-30T11:28:15Z</time>
      </trkpt>
      <trkpt lat="48.51284" lon="7.16582">
        <ele>975</ele>
        <time>2022-07-30T11:28:35Z</time>
      </trkpt>
      <trkpt lat="48.51283" lon="7.16569">
        <ele>976</ele>
        <time>2022-07-30T11:28:46Z</time>
      </trkpt>
      <trkpt lat="48.51286" lon="7.1656">
        <ele>977</ele>
        <time>2022-07-30T11:28:55Z</time>
      </trkpt>
      <trkpt lat="48.51286" lon="7.16554">
        <ele>978</ele>
        <time>2022-07-30T11:29:01Z</time>
      </trkpt>
      <trkpt lat="48.51282" lon="7.1655">
        <ele>979</ele>
        <time>2022-07-30T11:29:07Z</time>
      </trkpt>
      <trkpt lat="48.51279" lon="7.16538">
        <ele>981</ele>
        <time>2022-07-30T11:29:18Z</time>
      </trkpt>
      <trkpt lat="48.5127" lon="7.165">
        <ele>987</ele>
        <time>2022-07-30T11:29:54Z</time>
      </trkpt>
      <trkpt lat="48.51269" lon="7.16487">
        <ele>987</ele>
        <time>2022-07-30T11:30:06Z</time>
      </trkpt>
      <trkpt lat="48.51271" lon="7.16482">
        <ele>986</ele>
        <time>2022-07-30T11:30:11Z</time>
      </trkpt>
      <trkpt lat="48.51269" lon="7.16461">
        <ele>985</ele>
        <time>2022-07-30T11:30:30Z</time>
      </trkpt>
      <trkpt lat="48.51265" lon="7.16434">
        <ele>985</ele>
        <time>2022-07-30T11:30:54Z</time>
      </trkpt>
      <trkpt lat="48.51259" lon="7.16419">
        <ele>986</ele>
        <time>2022-07-30T11:31:10Z</time>
      </trkpt>
      <trkpt lat="48.51246" lon="7.16395">
        <ele>984</ele>
        <time>2022-07-30T11:31:37Z</time>
      </trkpt>
      <trkpt lat="48.51218" lon="7.16379">
        <ele>977</ele>
        <time>2022-07-30T11:32:17Z</time>
      </trkpt>
      <trkpt lat="48.51201" lon="7.16352">
        <ele>973</ele>
        <time>2022-07-30T11:32:50Z</time>
      </trkpt>
      <trkpt lat="48.51193" lon="7.16349">
        <ele>972</ele>
        <time>2022-07-30T11:33:01Z</time>
      </trkpt>
      <trkpt lat="48.51193" lon="7.16349">
        <ele>972</ele>
        <time>2022-07-30T11:33:01Z</time>
      </trkpt>
      <trkpt lat="48.51192" lon="7.16349">
        <ele>972</ele>
        <time>2022-07-30T11:33:02Z</time>
      </trkpt>
      <trkpt lat="48.51192" lon="7.16339">
        <ele>971</ele>
        <time>2022-07-30T11:33:11Z</time>
      </trkpt>
      <trkpt lat="48.51182" lon="7.16327">
        <ele>970</ele>
        <time>2022-07-30T11:33:28Z</time>
      </trkpt>
      <trkpt lat="48.51134" lon="7.16282">
        <ele>960</ele>
        <time>2022-07-30T11:34:43Z</time>
      </trkpt>
      <trkpt lat="48.51131" lon="7.16277">
        <ele>959</ele>
        <time>2022-07-30T11:34:49Z</time>
      </trkpt>
      <trkpt lat="48.51093" lon="7.16243">
        <ele>958</ele>
        <time>2022-07-30T11:35:48Z</time>
      </trkpt>
      <trkpt lat="48.51077" lon="7.16224">
        <ele>956</ele>
        <time>2022-07-30T11:36:16Z</time>
      </trkpt>
      <trkpt lat="48.51051" lon="7.16206">
        <ele>955</ele>
        <time>2022-07-30T11:36:54Z</time>
      </trkpt>
      <trkpt lat="48.51039" lon="7.162">
        <ele>955</ele>
        <time>2022-07-30T11:37:11Z</time>
      </trkpt>
      <trkpt lat="48.51031" lon="7.16198">
        <ele>956</ele>
        <time>2022-07-30T11:37:21Z</time>
      </trkpt>
      <trkpt lat="48.51028" lon="7.16204">
        <ele>955</ele>
        <time>2022-07-30T11:37:28Z</time>
      </trkpt>
      <trkpt lat="48.51027" lon="7.16214">
        <ele>953</ele>
        <time>2022-07-30T11:37:37Z</time>
      </trkpt>
      <trkpt lat="48.51033" lon="7.16226">
        <ele>952</ele>
        <time>2022-07-30T11:37:50Z</time>
      </trkpt>
      <trkpt lat="48.51033" lon="7.16226">
        <ele>952</ele>
        <time>2022-07-30T11:37:50Z</time>
      </trkpt>
      <trkpt lat="48.51083" lon="7.1633">
        <ele>944</ele>
        <time>2022-07-30T11:39:44Z</time>
      </trkpt>
      <trkpt lat="48.51089" lon="7.16361">
        <ele>940</ele>
        <time>2022-07-30T11:40:12Z</time>
      </trkpt>
      <trkpt lat="48.51075" lon="7.16359">
        <ele>936</ele>
        <time>2022-07-30T11:40:31Z</time>
      </trkpt>
      <trkpt lat="48.51059" lon="7.16373">
        <ele>929</ele>
        <time>2022-07-30T11:40:56Z</time>
      </trkpt>
      <trkpt lat="48.51009" lon="7.16343">
        <ele>922</ele>
        <time>2022-07-30T11:42:08Z</time>
      </trkpt>
      <trkpt lat="48.50989" lon="7.16341">
        <ele>915</ele>
        <time>2022-07-30T11:42:34Z</time>
      </trkpt>
      <trkpt lat="48.50967" lon="7.16331">
        <ele>909</ele>
        <time>2022-07-30T11:43:05Z</time>
      </trkpt>
      <trkpt lat="48.5093" lon="7.16285">
        <ele>904</ele>
        <time>2022-07-30T11:44:09Z</time>
      </trkpt>
      <trkpt lat="48.5093" lon="7.16285">
        <ele>904</ele>
        <time>2022-07-30T11:44:09Z</time>
      </trkpt>
      <trkpt lat="48.50904" lon="7.16252">
        <ele>899</ele>
        <time>2022-07-30T11:44:54Z</time>
      </trkpt>
      <trkpt lat="48.50878" lon="7.16191">
        <ele>895</ele>
        <time>2022-07-30T11:45:58Z</time>
      </trkpt>
      <trkpt lat="48.50852" lon="7.16122">
        <ele>884</ele>
        <time>2022-07-30T11:47:09Z</time>
      </trkpt>
      <trkpt lat="48.50846" lon="7.16101">
        <ele>881</ele>
        <time>2022-07-30T11:47:29Z</time>
      </trkpt>
      <trkpt lat="48.50851" lon="7.1605">
        <ele>881</ele>
        <time>2022-07-30T11:48:14Z</time>
      </trkpt>
      <trkpt lat="48.50855" lon="7.16024">
        <ele>881</ele>
        <time>2022-07-30T11:48:38Z</time>
      </trkpt>
      <trkpt lat="48.50848" lon="7.1597">
        <ele>873</ele>
        <time>2022-07-30T11:49:27Z</time>
      </trkpt>
      <trkpt lat="48.50865" lon="7.15897">
        <ele>866</ele>
        <time>2022-07-30T11:50:35Z</time>
      </trkpt>
      <trkpt lat="48.50893" lon="7.15839">
        <ele>859</ele>
        <time>2022-07-30T11:51:39Z</time>
      </trkpt>
      <trkpt lat="48.50915" lon="7.15806">
        <ele>855</ele>
        <time>2022-07-30T11:52:20Z</time>
      </trkpt>
      <trkpt lat="48.50971" lon="7.15779">
        <ele>846</ele>
        <time>2022-07-30T11:53:38Z</time>
      </trkpt>
      <trkpt lat="48.50972" lon="7.15774">
        <ele>845</ele>
        <time>2022-07-30T11:53:43Z</time>
      </trkpt>
      <trkpt lat="48.5097" lon="7.15769">
        <ele>844</ele>
        <time>2022-07-30T11:53:48Z</time>
      </trkpt>
      <trkpt lat="48.50957" lon="7.1576">
        <ele>843</ele>
        <time>2022-07-30T11:54:07Z</time>
      </trkpt>
      <trkpt lat="48.50948" lon="7.15749">
        <ele>841</ele>
        <time>2022-07-30T11:54:23Z</time>
      </trkpt>
      <trkpt lat="48.50944" lon="7.15735">
        <ele>839</ele>
        <time>2022-07-30T11:54:36Z</time>
      </trkpt>
      <trkpt lat="48.5094" lon="7.15728">
        <ele>838</ele>
        <time>2022-07-30T11:54:44Z</time>
      </trkpt>
      <trkpt lat="48.50927" lon="7.15723">
        <ele>839</ele>
        <time>2022-07-30T11:55:02Z</time>
      </trkpt>
      <trkpt lat="48.50918" lon="7.15713">
        <ele>839</ele>
        <time>2022-07-30T11:55:17Z</time>
      </trkpt>
      <trkpt lat="48.50918" lon="7.15713">
        <ele>839</ele>
        <time>2022-07-30T11:55:17Z</time>
      </trkpt>
      <trkpt lat="48.50901" lon="7.15694">
        <ele>835</ele>
        <time>2022-07-30T11:55:45Z</time>
      </trkpt>
      <trkpt lat="48.50866" lon="7.15638">
        <ele>826</ele>
        <time>2022-07-30T11:56:53Z</time>
      </trkpt>
      <trkpt lat="48.50835" lon="7.15579">
        <ele>815</ele>
        <time>2022-07-30T11:58:00Z</time>
      </trkpt>
      <trkpt lat="48.50803" lon="7.15524">
        <ele>808</ele>
        <time>2022-07-30T11:59:05Z</time>
      </trkpt>
      <trkpt lat="48.50771" lon="7.15463">
        <ele>803</ele>
        <time>2022-07-30T12:00:14Z</time>
      </trkpt>
      <trkpt lat="48.50738" lon="7.15436">
        <ele>799</ele>
        <time>2022-07-30T12:01:04Z</time>
      </trkpt>
      <trkpt lat="48.50687" lon="7.1542">
        <ele>791</ele>
        <time>2022-07-30T12:02:13Z</time>
      </trkpt>
      <trkpt lat="48.50677" lon="7.1541">
        <ele>789</ele>
        <time>2022-07-30T12:02:29Z</time>
      </trkpt>
      <trkpt lat="48.50667" lon="7.15397">
        <ele>787</ele>
        <time>2022-07-30T12:02:47Z</time>
      </trkpt>
      <trkpt lat="48.50657" lon="7.15381">
        <ele>783</ele>
        <time>2022-07-30T12:03:06Z</time>
      </trkpt>
      <trkpt lat="48.50644" lon="7.15349">
        <ele>777</ele>
        <time>2022-07-30T12:03:39Z</time>
      </trkpt>
      <trkpt lat="48.5064" lon="7.15327">
        <ele>775</ele>
        <time>2022-07-30T12:04:00Z</time>
      </trkpt>
      <trkpt lat="48.5064" lon="7.15327">
        <ele>775</ele>
        <time>2022-07-30T12:04:00Z</time>
      </trkpt>
      <trkpt lat="48.50639" lon="7.15315">
        <ele>774</ele>
        <time>2022-07-30T12:04:10Z</time>
      </trkpt>
      <trkpt lat="48.50642" lon="7.15295">
        <ele>774</ele>
        <time>2022-07-30T12:04:28Z</time>
      </trkpt>
      <trkpt lat="48.50647" lon="7.15287">
        <ele>774</ele>
        <time>2022-07-30T12:04:38Z</time>
      </trkpt>
      <trkpt lat="48.50652" lon="7.15272">
        <ele>775</ele>
        <time>2022-07-30T12:04:53Z</time>
      </trkpt>
      <trkpt lat="48.50659" lon="7.15236">
        <ele>773</ele>
        <time>2022-07-30T12:05:26Z</time>
      </trkpt>
      <trkpt lat="48.50676" lon="7.1519">
        <ele>771</ele>
        <time>2022-07-30T12:06:13Z</time>
      </trkpt>
      <trkpt lat="48.50686" lon="7.15167">
        <ele>768</ele>
        <time>2022-07-30T12:06:37Z</time>
      </trkpt>
      <trkpt lat="48.50695" lon="7.15156">
        <ele>767</ele>
        <time>2022-07-30T12:06:52Z</time>
      </trkpt>
      <trkpt lat="48.50708" lon="7.15146">
        <ele>766</ele>
        <time>2022-07-30T12:07:12Z</time>
      </trkpt>
      <trkpt lat="48.50745" lon="7.1513">
        <ele>763</ele>
        <time>2022-07-30T12:08:03Z</time>
      </trkpt>
      <trkpt lat="48.50749" lon="7.15127">
        <ele>763</ele>
        <time>2022-07-30T12:08:09Z</time>
      </trkpt>
      <trkpt lat="48.50759" lon="7.15112">
        <ele>760</ele>
        <time>2022-07-30T12:08:28Z</time>
      </trkpt>
      <trkpt lat="48.50771" lon="7.15079">
        <ele>754</ele>
        <time>2022-07-30T12:09:01Z</time>
      </trkpt>
      <trkpt lat="48.50792" lon="7.15036">
        <ele>749</ele>
        <time>2022-07-30T12:09:49Z</time>
      </trkpt>
      <trkpt lat="48.508" lon="7.15014">
        <ele>746</ele>
        <time>2022-07-30T12:10:11Z</time>
      </trkpt>
      <trkpt lat="48.50804" lon="7.14988">
        <ele>744</ele>
        <time>2022-07-30T12:10:34Z</time>
      </trkpt>
      <trkpt lat="48.50806" lon="7.14969">
        <ele>743</ele>
        <time>2022-07-30T12:10:51Z</time>
      </trkpt>
      <trkpt lat="48.50808" lon="7.14956">
        <ele>742</ele>
        <time>2022-07-30T12:11:03Z</time>
      </trkpt>
      <trkpt lat="48.50814" lon="7.14944">
        <ele>741</ele>
        <time>2022-07-30T12:11:17Z</time>
      </trkpt>
      <trkpt lat="48.50794" lon="7.14801">
        <ele>733</ele>
        <time>2022-07-30T12:13:26Z</time>
      </trkpt>
      <trkpt lat="48.50789" lon="7.14738">
        <ele>731</ele>
        <time>2022-07-30T12:14:22Z</time>
      </trkpt>
      <trkpt lat="48.50789" lon="7.14706">
        <ele>732</ele>
        <time>2022-07-30T12:14:50Z</time>
      </trkpt>
      <trkpt lat="48.50791" lon="7.14689">
        <ele>733</ele>
        <time>2022-07-30T12:15:05Z</time>
      </trkpt>
      <trkpt lat="48.50779" lon="7.14681">
        <ele>733</ele>
        <time>2022-07-30T12:15:23Z</time>
      </trkpt>
      <trkpt lat="48.50785" lon="7.14647">
        <ele>734</ele>
        <time>2022-07-30T12:15:54Z</time>
      </trkpt>
      <trkpt lat="48.50782" lon="7.14632">
        <ele>735</ele>
        <time>2022-07-30T12:16:08Z</time>
      </trkpt>
      <trkpt lat="48.50775" lon="7.14621">
        <ele>735</ele>
        <time>2022-07-30T12:16:21Z</time>
      </trkpt>
      <trkpt lat="48.50772" lon="7.14618">
        <ele>735</ele>
        <time>2022-07-30T12:16:26Z</time>
      </trkpt>
      <trkpt lat="48.50772" lon="7.14618">
        <ele>735</ele>
        <time>2022-07-30T12:16:26Z</time>
      </trkpt>
      <trkpt lat="48.50766" lon="7.14614">
        <ele>735</ele>
        <time>2022-07-30T12:16:35Z</time>
      </trkpt>
      <trkpt lat="48.50755" lon="7.14618">
        <ele>734</ele>
        <time>2022-07-30T12:16:50Z</time>
      </trkpt>
      <trkpt lat="48.50745" lon="7.14628">
        <ele>733</ele>
        <time>2022-07-30T12:17:06Z</time>
      </trkpt>
      <trkpt lat="48.50737" lon="7.14641">
        <ele>730</ele>
        <time>2022-07-30T12:17:22Z</time>
      </trkpt>
      <trkpt lat="48.5073" lon="7.1465">
        <ele>729</ele>
        <time>2022-07-30T12:17:34Z</time>
      </trkpt>
      <trkpt lat="48.5073" lon="7.14661">
        <ele>728</ele>
        <time>2022-07-30T12:17:44Z</time>
      </trkpt>
      <trkpt lat="48.50726" lon="7.14673">
        <ele>727</ele>
        <time>2022-07-30T12:17:56Z</time>
      </trkpt>
      <trkpt lat="48.5072" lon="7.14685">
        <ele>726</ele>
        <time>2022-07-30T12:18:09Z</time>
      </trkpt>
      <trkpt lat="48.50648" lon="7.14744">
        <ele>717</ele>
        <time>2022-07-30T12:19:58Z</time>
      </trkpt>
    </trkseg>
  </trk>
</gpx>